This is the latest recevied weather packets stored in our database for station/object OH6NMY. If no packets are shown the sender has not sent any weather packets the latest 10 day(s).
| Time | Temp. | Humidity | Pressure | Rain* | Wind** | Luminosity | Snow |
|---|---|---|---|---|---|---|---|
| 1776923793 | 2.78° C | 70% | 1015.5 hPa | 0 mm | - | - | - |
| 1776922845 | 2.22° C | 75% | 1015.5 hPa | 0 mm | - | - | - |
| 1776920013 | 1.11° C | 77% | 1015.8 hPa | 0 mm | - | - | - |
| 1776918393 | 0.56° C | 77% | 1015.9 hPa | 0 mm | - | - | - |
| 1776917313 | 0° C | 77% | 1016 hPa | 0 mm | - | - | - |
| 1776916906 | 0° C | 77% | 1015.9 hPa | 0 mm | - | - | - |
| 1776912993 | -1.11° C | 71% | 1015.9 hPa | 0 mm | - | - | - |
| 1776907053 | -1.67° C | 64% | 1015.8 hPa | 0 mm | - | - | - |
| 1776906513 | -1.67° C | 63% | 1015.6 hPa | 0 mm | - | - | - |
| 1776904893 | -1.67° C | 62% | 1015.4 hPa | 0 mm | - | - | - |
| 1776903813 | -1.11° C | 62% | 1015.2 hPa | 0 mm | - | - | - |
| 1776901653 | -1.11° C | 62% | 1014.9 hPa | 0 mm | - | - | - |
| 1776901244 | -1.11° C | 62% | 1015.3 hPa | 0 mm | - | - | - |
| 1776899493 | -1.67° C | 62% | 1015 hPa | 0 mm | - | - | - |
| 1776898953 | -1.11° C | 62% | 1015.1 hPa | 0 mm | - | - | - |
| 1776891393 | 1.67° C | 51% | 1013.8 hPa | 0 mm | - | - | - |
| 1776889233 | 2.78° C | 40% | 1013.3 hPa | 0 mm | - | - | - |
| 1776888285 | 3.33° C | 40% | 1013.2 hPa | 0 mm | - | - | - |
| 1776887073 | 3.89° C | 49% | 1012.9 hPa | 0 mm | - | - | - |
| 1776884913 | 4.44° C | 53% | 1012.3 hPa | 0 mm | - | - | - |
| 1776883833 | 5° C | 53% | 1012.3 hPa | 0 mm | - | - | - |
| 1776882753 | 6.11° C | 51% | 1011.4 hPa | 0 mm | - | - | - |
| 1776881673 | 6.67° C | 47% | 1011.2 hPa | 0 mm | - | - | - |
| 1776880053 | 7.78° C | 45% | 1010.3 hPa | 0 mm | - | - | - |
* Rain latest hour (hover to see other rain measurements)
** Current wind speed in m/s (hover to see current wind gust speed)